Aérodrome :
LOGIN :

S'inscrire | Disclaimer

   EN    FR    IT 

 










Légende :    VFR   VFR Marginal   IFR   IFR Intensif   IFR Très Intensif
Visi : 
Plafond : 
>= 8 km
>= 3000ft
5 à 8 km
1000 à 3000 ft
1500m à 5 km
500 à 1000 ft
800 à 1500m
200 à 500 ft
< 800m
< 200 ft
Symboles :   Orages  Brouillard  Fortes neiges  Fortes précipitations  Vent > 20 kt
SIGMETs :   Divers  Orages  Givrage  Turbulence  Onde Orograph.  Cendres Volcan.







- Altitude de l'aérodrome : 245 ft


ETHS - Fassberg

DERNIER METAR :
  • 231720Z 09007KT 9999 BKN018 07/03 Q1022 WHT

METARs EXPIRÉS :
  • 231620Z 08007KT 9999 BKN018 07/03 Q1020 WHT FCST CANCEL
  • 231520Z 08010KT 9999 BKN019 07/03 Q1020 WHT WHT

TAF AMD TAF ETHS
Valide du 23 à 15h jusqu'au 24 à 00h UTC


231552Z 2315/2324 09008KT 9999 NSW BKN020
BECMG 2319/2321 05006KT 9999 NSW BKN030 CANCEL 1620
Pas de NOTAMs connus pour ce terrain.



MET'MAP, la Météo Aéronautique d'un coup d'oeil ! - Copyright ORBIFLY Décembre 2007 - Disclaimer

ORBIFLY MET'MAP TEAM :

Programmation & Développement : Alexandra Zaïnal
Conception & Développement : Baudouin d'Aumeries
Co-Programmation & Développement : Marc-Olivier Méhu
Soutien technique & logistique : Manuel Goepfert

Contact : metmap@orbifly.com




SOURCES & CREDITS :

   NOAA